Time;durP1;ratioP1;P1;durP2;ratioP2;P2;SDS_P1;SDS_P2;PMS_P1;PMS_P2;Temp;Humidity;BMP_temperature;BMP_pressure;BME280_temperature;BME280_humidity;BME280_pressure;Samples;Min_cycle;Max_cycle;Signal;HPM_P1;HPM_P2
2022/10/28 00:00:53;;;;;;;82.75;38.90;;;11.70;99.90;;;;;;6311566;22;20006;-86
2022/10/28 00:03:19;;;;;;;75.03;39.50;;;11.70;99.90;;;;;;6339262;22;20018;-90
2022/10/28 00:05:45;;;;;;;76.93;38.78;;;11.70;99.90;;;;;;6311831;22;20435;-85
2022/10/28 00:08:11;;;;;;;73.40;37.80;;;11.70;99.90;;;;;;6311739;22;19991;-84
2022/10/28 00:10:37;;;;;;;73.28;37.15;;;11.60;99.90;;;;;;6337475;22;19991;-84
2022/10/28 00:13:02;;;;;;;63.13;35.95;;;11.60;99.90;;;;;;6339267;22;20043;-90
2022/10/28 00:15:28;;;;;;;67.10;36.65;;;11.60;99.90;;;;;;6337468;22;20094;-86
2022/10/28 00:17:54;;;;;;;65.13;34.08;;;11.60;99.90;;;;;;6337729;22;19998;-86
2022/10/28 00:20:20;;;;;;;63.35;31.83;;;11.50;99.90;;;;;;6339504;22;20022;-87
2022/10/28 00:22:46;;;;;;;61.97;31.73;;;11.50;99.90;;;;;;6338096;22;19994;-86
2022/10/28 00:25:11;;;;;;;63.38;32.47;;;11.50;99.90;;;;;;6337577;22;20010;-85
2022/10/28 00:27:37;;;;;;;65.63;32.65;;;11.50;99.90;;;;;;6339314;22;20021;-86
2022/10/28 00:30:03;;;;;;;66.43;31.60;;;11.50;99.90;;;;;;6339201;22;19991;-85
2022/10/28 00:32:30;;;;;;;61.50;29.05;;;11.50;99.90;;;;;;6339058;22;19998;-85
2022/10/28 00:34:57;;;;;;;55.22;30.17;;;11.50;99.90;;;;;;6311851;22;19999;-86
2022/10/28 00:37:23;;;;;;;58.33;28.10;;;11.50;99.90;;;;;;6340717;22;20005;-86
2022/10/28 00:39:48;;;;;;;54.65;29.48;;;11.40;99.90;;;;;;6340161;22;19995;-87
2022/10/28 00:42:19;;;;;;;44.38;26.20;;;11.40;99.90;;;;;;6339921;22;19994;-88
2022/10/28 00:44:51;;;;;;;47.15;26.33;;;11.40;99.90;;;;;;6341267;22;20010;-86
2022/10/28 00:47:22;;;;;;;;;;;11.40;99.90;;;;;;6314896;22;20078;-89
2022/10/28 00:49:50;;;;;;;41.95;22.15;;;11.30;99.90;;;;;;6313977;22;19928;-89
2022/10/28 00:52:21;;;;;;;35.38;21.38;;;11.30;99.90;;;;;;6313679;22;19995;-87
2022/10/28 00:54:49;;;;;;;36.72;20.58;;;11.30;99.90;;;;;;6314183;22;20006;-85
2022/10/28 00:57:20;;;;;;;40.75;20.73;;;11.30;99.90;;;;;;6313850;22;20033;-87
2022/10/28 00:59:51;;;;;;;41.80;19.43;;;11.30;99.90;;;;;;6313676;22;20417;-87
2022/10/28 01:02:18;;;;;;;34.58;20.48;;;11.20;99.90;;;;;;6313973;22;20411;-85
2022/10/28 01:04:45;;;;;;;43.15;20.40;;;11.20;99.90;;;;;;6339639;22;20010;-87
2022/10/28 01:07:10;;;;;;;36.80;20.95;;;11.20;99.90;;;;;;6313703;22;20026;-88
2022/10/28 01:09:38;;;;;;;41.63;21.75;;;11.20;99.90;;;;;;6339709;22;19991;-85
2022/10/28 01:12:42;;;;;;;49.45;21.10;;;11.20;99.90;;;;;;6313694;22;20321;-88
2022/10/28 01:15:14;;;;;;;37.90;21.05;;;11.20;99.90;;;;;;6313176;22;20007;-89
2022/10/28 01:17:57;;;;;;;36.08;21.25;;;11.10;99.90;;;;;;6341466;22;20022;-86
2022/10/28 01:20:26;;;;;;;37.85;19.48;;;11.10;99.90;;;;;;6313575;22;20028;-86
2022/10/28 01:23:22;;;;;;;33.90;19.90;;;11.00;99.90;;;;;;6313600;22;20156;-85
2022/10/28 01:25:59;;;;;;;44.80;22.42;;;11.00;99.90;;;;;;6313647;22;20423;-88
2022/10/28 01:28:52;;;;;;;42.70;21.65;;;11.00;99.90;;;;;;6313533;22;19987;-87
2022/10/28 01:31:27;;;;;;;38.75;22.50;;;11.00;99.90;;;;;;6314408;22;20001;-87
2022/10/28 01:34:08;;;;;;;37.42;22.27;;;10.90;99.90;;;;;;6313662;22;20003;-86
2022/10/28 01:36:47;;;;;;;45.10;23.55;;;10.90;99.90;;;;;;6313914;22;20403;-84
2022/10/28 01:39:42;;;;;;;38.78;22.35;;;10.90;99.90;;;;;;6313615;22;19995;-84
2022/10/28 01:42:14;;;;;;;49.33;23.05;;;10.90;99.90;;;;;;6313403;22;20044;-86
2022/10/28 01:44:56;;;;;;;40.47;21.90;;;10.90;99.90;;;;;;6313360;22;20476;-85
2022/10/28 01:47:48;;;;;;;37.10;21.63;;;10.80;99.90;;;;;;6313047;22;20219;-88
2022/10/28 01:50:28;;;;;;;39.88;21.35;;;10.70;99.90;;;;;;6313746;22;20407;-86
2022/10/28 01:52:56;;;;;;;35.45;20.45;;;10.70;99.90;;;;;;6313375;22;20342;-84
2022/10/28 01:55:27;;;;;;;38.83;21.10;;;10.60;99.90;;;;;;6313035;22;20388;-88
2022/10/28 01:57:57;;;;;;;35.95;21.30;;;10.50;99.90;;;;;;6313103;22;20002;-89
2022/10/28 02:00:23;;;;;;;40.63;21.17;;;10.50;99.90;;;;;;6313123;22;19995;-88
2022/10/28 02:02:50;;;;;;;40.70;22.73;;;10.50;99.90;;;;;;6312962;22;19995;-87
2022/10/28 02:05:45;;;;;;;43.17;22.42;;;10.50;99.90;;;;;;6339129;22;20284;-86
2022/10/28 02:08:17;;;;;;;37.17;20.73;;;10.40;99.90;;;;;;6313204;22;19998;-88
2022/10/28 02:10:45;;;;;;;37.85;20.63;;;10.40;99.90;;;;;;6312885;22;20002;-87
2022/10/28 02:13:13;;;;;;;33.13;19.42;;;10.40;99.90;;;;;;6312900;22;19991;-86
2022/10/28 02:16:38;;;;;;;34.92;20.20;;;10.40;99.90;;;;;;6311690;22;20412;-86
2022/10/28 02:19:21;;;;;;;34.25;19.75;;;10.30;99.90;;;;;;6309097;22;20018;-87
2022/10/28 02:22:19;;;;;;;39.28;20.08;;;10.30;99.90;;;;;;6340507;22;20415;-85
2022/10/28 02:25:06;;;;;;;34.92;19.52;;;10.30;99.90;;;;;;6312643;22;20472;-87
2022/10/28 02:27:32;;;;;;;31.15;19.15;;;10.30;99.90;;;;;;6313042;22;20476;-86
2022/10/28 02:30:19;;;;;;;36.15;19.30;;;10.30;99.90;;;;;;6312576;22;19994;-86
2022/10/28 02:32:51;;;;;;;32.70;19.30;;;10.30;99.90;;;;;;6313018;22;19998;-89
2022/10/28 02:35:23;;;;;;;36.33;18.48;;;10.30;99.90;;;;;;6313033;22;20003;-85
2022/10/28 02:37:50;;;;;;;;;;;10.30;99.90;;;;;;6313485;22;20006;-86
2022/10/28 02:40:23;;;;;;;30.13;17.88;;;10.30;99.90;;;;;;6340511;22;19937;-84
2022/10/28 02:42:53;;;;;;;29.70;17.40;;;10.20;99.90;;;;;;6312800;22;20085;-84
2022/10/28 02:45:22;;;;;;;31.88;17.80;;;10.20;99.90;;;;;;6312487;22;20003;-85
2022/10/28 02:47:57;;;;;;;30.90;17.73;;;10.20;99.90;;;;;;6312638;22;20043;-85
2022/10/28 02:50:31;;;;;;;44.13;21.83;;;10.20;99.90;;;;;;6340122;22;19999;-86
2022/10/28 02:52:59;;;;;;;30.48;18.55;;;10.20;99.90;;;;;;6312782;22;19995;-86
2022/10/28 02:55:32;;;;;;;28.83;16.45;;;10.10;99.90;;;;;;6339830;22;20022;-87
2022/10/28 02:57:58;;;;;;;27.30;15.75;;;10.10;99.90;;;;;;6312643;22;19995;-85
2022/10/28 03:00:24;;;;;;;37.05;17.30;;;10.10;99.90;;;;;;6312896;22;19998;-88
2022/10/28 03:02:50;;;;;;;26.58;16.13;;;10.10;99.90;;;;;;6338510;22;20078;-85
2022/10/28 03:05:16;;;;;;;29.25;16.33;;;10.10;99.90;;;;;;6312220;22;20036;-85
2022/10/28 03:07:42;;;;;;;28.35;16.38;;;10.10;99.90;;;;;;6340312;22;19995;-86
2022/10/28 03:10:09;;;;;;;32.70;16.92;;;10.10;99.90;;;;;;6338385;22;20045;-85
2022/10/28 03:12:35;;;;;;;32.65;17.30;;;10.10;99.90;;;;;;6340060;22;19998;-89
2022/10/28 03:15:01;;;;;;;29.83;17.48;;;10.10;99.90;;;;;;6338253;22;20011;-87
2022/10/28 03:17:27;;;;;;;35.25;17.15;;;10.00;99.90;;;;;;6338274;22;19995;-85
2022/10/28 03:19:53;;;;;;;32.55;17.38;;;10.00;99.90;;;;;;6338197;22;20301;-87
2022/10/28 03:22:19;;;;;;;30.50;17.77;;;10.00;99.90;;;;;;6338920;22;20048;-86
2022/10/28 03:24:45;;;;;;;24.88;16.65;;;10.00;99.90;;;;;;6338183;22;20091;-88
2022/10/28 03:27:10;;;;;;;31.27;17.15;;;10.00;99.90;;;;;;6338170;22;19999;-85
2022/10/28 03:29:36;;;;;;;36.53;18.83;;;10.10;99.90;;;;;;6338319;22;20025;-86
2022/10/28 03:32:02;;;;;;;36.70;18.77;;;10.00;99.90;;;;;;6338496;22;20003;-87
2022/10/28 03:34:28;;;;;;;35.60;18.02;;;10.00;99.90;;;;;;6339758;22;19994;-85
2022/10/28 03:36:54;;;;;;;31.25;17.88;;;10.00;99.90;;;;;;6338261;22;20006;-85
2022/10/28 03:39:19;;;;;;;28.17;17.35;;;10.00;99.90;;;;;;6338321;22;19995;-85
2022/10/28 03:41:45;;;;;;;35.03;19.27;;;9.90;99.90;;;;;;6339531;22;20032;-88
2022/10/28 03:44:11;;;;;;;32.85;18.55;;;9.90;99.90;;;;;;6338110;22;20009;-84
2022/10/28 03:46:37;;;;;;;42.47;18.45;;;9.90;99.90;;;;;;6339512;22;20040;-85
2022/10/28 03:49:03;;;;;;;37.33;19.05;;;10.00;99.90;;;;;;6339920;22;20033;-87
2022/10/28 03:51:28;;;;;;;30.77;17.60;;;10.00;99.90;;;;;;6339776;22;20392;-87
2022/10/28 03:53:54;;;;;;;30.17;18.13;;;9.90;99.90;;;;;;6338121;22;20047;-86
2022/10/28 03:56:20;;;;;;;31.77;20.20;;;10.00;99.90;;;;;;6338342;22;20312;-87
2022/10/28 03:58:47;;;;;;;37.47;19.67;;;10.00;99.90;;;;;;6311997;22;19991;-88
2022/10/28 04:01:13;;;;;;;31.17;18.85;;;9.90;99.90;;;;;;6339606;22;19999;-87
2022/10/28 04:03:39;;;;;;;44.97;22.98;;;10.00;99.90;;;;;;6339665;22;20003;-88
2022/10/28 04:06:05;;;;;;;49.70;23.63;;;10.00;99.90;;;;;;6338068;22;19991;-87
2022/10/28 04:08:31;;;;;;;63.28;30.55;;;10.00;99.90;;;;;;6311742;22;19999;-84
2022/10/28 04:10:57;;;;;;;57.70;28.05;;;10.00;99.90;;;;;;6312018;22;19999;-87
2022/10/28 04:13:23;;;;;;;90.40;44.42;;;10.00;99.90;;;;;;6338102;22;20026;-87
2022/10/28 04:15:49;;;;;;;75.45;40.88;;;10.00;99.90;;;;;;6337337;22;20011;-87
2022/10/28 04:18:14;;;;;;;40.75;25.40;;;10.00;99.90;;;;;;6338416;22;20031;-88
2022/10/28 04:20:40;;;;;;;39.03;21.92;;;10.00;99.90;;;;;;6339341;22;20382;-87
2022/10/28 04:23:07;;;;;;;44.40;21.45;;;10.00;99.90;;;;;;6338014;22;20097;-87
2022/10/28 04:25:33;;;;;;;37.30;19.52;;;10.00;99.90;;;;;;6311906;22;20034;-89
2022/10/28 04:27:58;;;;;;;34.67;19.80;;;10.00;99.90;;;;;;6337943;22;19995;-86
2022/10/28 04:30:24;;;;;;;32.67;18.25;;;10.00;99.90;;;;;;6337401;22;20018;-87
2022/10/28 04:32:50;;;;;;;29.13;17.60;;;9.90;99.90;;;;;;6337550;22;20006;-85
2022/10/28 04:35:16;;;;;;;27.08;17.67;;;9.90;99.90;;;;;;6338652;22;20005;-86
2022/10/28 04:37:42;;;;;;;35.45;18.60;;;9.90;99.90;;;;;;6337742;22;20311;-84
2022/10/28 04:40:08;;;;;;;44.15;19.10;;;9.90;99.90;;;;;;6337578;22;20003;-85
2022/10/28 04:42:34;;;;;;;29.08;17.60;;;9.90;99.90;;;;;;6338392;22;19987;-87
2022/10/28 04:45:00;;;;;;;32.33;18.95;;;9.90;99.90;;;;;;6339068;22;19995;-85
2022/10/28 04:47:26;;;;;;;34.45;18.92;;;9.90;99.90;;;;;;6337635;22;19995;-87
2022/10/28 04:49:52;;;;;;;33.28;18.30;;;9.90;99.90;;;;;;6337654;22;20002;-86
2022/10/28 04:52:17;;;;;;;32.70;18.50;;;9.90;99.90;;;;;;6337507;22;19995;-84
2022/10/28 04:54:43;;;;;;;37.20;18.75;;;9.80;99.90;;;;;;6339129;22;20001;-87
2022/10/28 04:57:09;;;;;;;39.50;19.77;;;9.90;99.90;;;;;;6337476;22;20002;-88
2022/10/28 04:59:36;;;;;;;40.20;20.67;;;9.80;99.90;;;;;;6337750;22;20031;-85
2022/10/28 05:02:02;;;;;;;38.40;21.20;;;9.90;99.90;;;;;;6337408;22;19995;-88
2022/10/28 05:04:27;;;;;;;33.92;20.83;;;9.80;99.90;;;;;;6338495;22;20003;-86
2022/10/28 05:06:53;;;;;;;38.97;20.95;;;9.80;99.90;;;;;;6337532;22;20003;-87
2022/10/28 05:09:19;;;;;;;40.10;22.98;;;9.80;99.90;;;;;;6337556;22;19994;-85
2022/10/28 05:11:45;;;;;;;45.40;25.52;;;9.90;99.90;;;;;;6337138;22;19995;-87
2022/10/28 05:14:10;;;;;;;47.42;24.40;;;9.90;99.90;;;;;;6338964;22;19995;-88
2022/10/28 05:16:36;;;;;;;43.53;25.05;;;9.90;99.90;;;;;;6337316;22;20074;-89
2022/10/28 05:19:02;;;;;;;46.13;26.27;;;9.90;99.90;;;;;;6337519;22;19994;-85
2022/10/28 05:21:28;;;;;;;39.65;23.50;;;9.80;99.90;;;;;;6337794;22;20001;-86
2022/10/28 05:23:53;;;;;;;37.03;24.27;;;9.80;99.90;;;;;;6338336;22;20066;-86
2022/10/28 05:26:19;;;;;;;40.72;22.92;;;9.70;99.90;;;;;;6339383;22;19991;-86
2022/10/28 05:28:51;;;;;;;39.17;22.13;;;9.80;99.90;;;;;;6339284;22;20046;-89
2022/10/28 05:31:17;;;;;;;44.70;25.25;;;9.80;99.90;;;;;;6340916;22;20308;-86
2022/10/28 05:33:43;;;;;;;47.10;26.90;;;9.70;99.90;;;;;;6338927;22;20029;-84
2022/10/28 05:36:09;;;;;;;53.22;30.48;;;9.70;99.90;;;;;;6339003;22;20325;-85
2022/10/28 05:38:35;;;;;;;70.15;33.53;;;9.70;99.90;;;;;;6338815;22;20002;-87
2022/10/28 05:41:02;;;;;;;72.90;40.90;;;9.80;99.90;;;;;;6312897;22;19998;-85
2022/10/28 05:43:28;;;;;;;84.20;42.67;;;9.80;99.90;;;;;;6338605;22;19995;-86
2022/10/28 05:45:56;;;;;;;74.55;44.53;;;9.90;99.90;;;;;;6312402;22;19999;-86
2022/10/28 05:48:23;;;;;;;69.53;41.03;;;9.80;99.90;;;;;;6312883;22;19998;-83
2022/10/28 05:50:48;;;;;;;78.30;32.92;;;9.90;99.90;;;;;;6340215;22;19994;-87
2022/10/28 05:53:15;;;;;;;71.68;30.55;;;9.90;99.90;;;;;;6312709;22;20308;-85
2022/10/28 05:55:40;;;;;;;81.07;32.47;;;9.90;99.90;;;;;;6312608;22;20021;-89
2022/10/28 05:58:08;;;;;;;80.93;35.20;;;10.00;99.90;;;;;;6338807;22;19999;-85
2022/10/28 06:00:35;;;;;;;79.57;36.53;;;10.10;99.90;;;;;;6311913;22;20002;-87
2022/10/28 06:03:09;;;;;;;86.20;33.53;;;10.10;99.90;;;;;;6312203;22;19999;-85
2022/10/28 06:05:41;;;;;;;82.13;30.63;;;10.20;99.90;;;;;;6310624;22;20014;-84
2022/10/28 06:08:06;;;;;;;;;;;10.30;99.90;;;;;;6312371;22;20408;-85
2022/10/28 06:10:32;;;;;;;62.53;27.27;;;10.30;99.90;;;;;;6339901;22;19979;-86
2022/10/28 06:12:58;;;;;;;64.22;26.90;;;10.40;99.90;;;;;;6339505;22;20299;-85
2022/10/28 06:15:24;;;;;;;65.57;26.70;;;10.50;99.90;;;;;;6337389;22;20013;-87
2022/10/28 06:17:50;;;;;;;64.45;31.15;;;10.60;99.90;;;;;;6339273;22;19991;-87
2022/10/28 06:20:17;;;;;;;57.80;26.83;;;10.60;99.90;;;;;;6337836;22;20072;-85
2022/10/28 06:22:50;;;;;;;59.50;28.60;;;10.70;99.90;;;;;;6339676;22;20345;-84
2022/10/28 06:25:17;;;;;;;59.15;29.60;;;10.80;99.90;;;;;;6340118;22;20009;-83
2022/10/28 06:27:43;;;;;;;57.53;29.20;;;11.00;99.90;;;;;;6340035;22;20066;-85
2022/10/28 06:30:09;;;;;;;66.28;35.08;;;11.00;99.90;;;;;;6338809;22;20075;-86
2022/10/28 06:32:35;;;;;;;67.93;33.83;;;11.10;99.90;;;;;;6339700;22;19990;-86
2022/10/28 06:35:00;;;;;;;56.78;31.08;;;11.20;99.90;;;;;;6339518;22;19999;-86
2022/10/28 06:37:26;;;;;;;53.38;30.27;;;11.30;99.90;;;;;;6340400;22;20066;-83
2022/10/28 06:39:53;;;;;;;65.75;32.58;;;11.40;99.90;;;;;;6337077;22;20048;-84
2022/10/28 06:42:19;;;;;;;61.42;34.72;;;11.50;99.90;;;;;;6340151;22;20454;-83
2022/10/28 06:44:45;;;;;;;61.88;33.20;;;11.60;99.90;;;;;;6340275;22;20047;-83
2022/10/28 06:47:11;;;;;;;57.78;33.55;;;11.70;99.90;;;;;;6338653;22;20090;-83
2022/10/28 06:49:36;;;;;;;81.43;44.28;;;11.70;99.90;;;;;;6340005;22;20458;-82
2022/10/28 06:52:02;;;;;;;86.72;49.90;;;11.80;99.90;;;;;;6337374;22;19999;-84
2022/10/28 06:54:28;;;;;;;68.32;39.67;;;11.90;99.90;;;;;;6338992;22;20006;-84
2022/10/28 06:56:54;;;;;;;68.68;39.45;;;11.90;99.90;;;;;;6339243;22;19995;-83
2022/10/28 06:59:19;;;;;;;89.10;52.28;;;12.00;99.90;;;;;;6338286;22;20002;-84
2022/10/28 07:01:45;;;;;;;83.50;44.55;;;12.00;99.90;;;;;;6338463;22;19991;-85
2022/10/28 07:04:12;;;;;;;73.85;42.85;;;12.10;99.90;;;;;;6338182;22;20408;-83
2022/10/28 07:06:39;;;;;;;71.20;45.35;;;12.20;99.90;;;;;;6340105;22;20012;-83
2022/10/28 07:09:06;;;;;;;72.22;40.53;;;12.30;99.90;;;;;;6339955;22;20044;-83
2022/10/28 07:11:32;;;;;;;67.65;38.35;;;12.30;99.90;;;;;;6339902;22;19991;-84
2022/10/28 07:13:58;;;;;;;73.40;38.40;;;12.40;99.90;;;;;;6312381;22;19995;-85
2022/10/28 07:16:24;;;;;;;64.80;38.80;;;12.50;99.90;;;;;;6338015;22;20010;-83
2022/10/28 07:18:49;;;;;;;62.30;38.10;;;12.60;99.90;;;;;;6338489;22;19998;-83
2022/10/28 07:21:20;;;;;;;67.55;39.45;;;12.60;99.90;;;;;;6338360;22;19995;-83
2022/10/28 07:23:54;;;;;;;62.00;36.20;;;12.70;99.90;;;;;;6311735;22;20007;-84
2022/10/28 07:26:29;;;;;;;72.10;37.58;;;12.80;99.90;;;;;;6312349;22;19991;-84
2022/10/28 07:28:54;;;;;;;60.63;36.15;;;13.00;99.90;;;;;;6338203;22;20002;-85
2022/10/28 07:31:42;;;;;;;60.17;35.28;;;13.00;99.90;;;;;;6339646;22;20013;-83
2022/10/28 07:34:25;;;;;;;63.83;35.70;;;13.10;99.90;;;;;;6310369;22;20285;-84
2022/10/28 07:36:52;;;;;;;67.38;35.80;;;13.20;99.90;;;;;;6308010;22;19995;-85
2022/10/28 07:39:18;;;;;;;63.28;36.90;;;13.40;99.90;;;;;;6311510;22;20005;-82
2022/10/28 07:41:44;;;;;;;67.03;37.15;;;13.40;99.90;;;;;;6312059;22;20375;-82
2022/10/28 07:44:10;;;;;;;62.50;36.65;;;13.60;99.90;;;;;;6338187;22;20451;-84
2022/10/28 07:46:36;;;;;;;55.63;36.42;;;13.60;99.90;;;;;;6337659;22;20081;-83
2022/10/28 07:49:02;;;;;;;65.00;36.00;;;13.80;99.90;;;;;;6311948;22;20045;-83
2022/10/28 07:51:28;;;;;;;58.90;36.42;;;13.80;99.90;;;;;;6311864;22;19995;-84
2022/10/28 07:53:55;;;;;;;61.45;35.85;;;14.00;99.90;;;;;;6312122;22;20077;-82
2022/10/28 07:56:21;;;;;;;67.45;38.33;;;14.00;99.90;;;;;;6339297;22;20070;-82
2022/10/28 07:58:47;;;;;;;63.75;40.33;;;14.10;99.90;;;;;;6337920;22;20442;-82
2022/10/28 08:01:15;;;;;;;69.47;40.85;;;14.20;99.90;;;;;;6339586;22;20436;-83
2022/10/28 08:03:41;;;;;;;67.97;40.63;;;14.20;99.90;;;;;;6311783;22;20374;-81
2022/10/28 08:06:15;;;;;;;71.45;41.55;;;14.30;99.90;;;;;;6311767;22;20402;-84
2022/10/28 08:08:40;;;;;;;67.63;42.75;;;14.30;99.90;;;;;;6339812;22;20075;-82
2022/10/28 08:11:18;;;;;;;78.40;42.50;;;14.40;99.90;;;;;;6339569;22;20023;-83
2022/10/28 08:13:45;;;;;;;56.42;36.30;;;14.50;99.90;;;;;;6339055;22;20003;-83
2022/10/28 08:16:11;;;;;;;63.83;35.88;;;14.60;99.90;;;;;;6311537;22;20015;-82
2022/10/28 08:18:39;;;;;;;54.13;33.53;;;14.70;99.90;;;;;;6286133;22;20019;-82
2022/10/28 08:21:07;;;;;;;62.45;33.58;;;14.80;99.90;;;;;;6311632;22;19995;-84
2022/10/28 08:23:33;;;;;;;60.22;32.88;;;14.90;99.90;;;;;;6311905;22;20399;-83
2022/10/28 08:25:59;;;;;;;57.83;32.42;;;15.00;99.90;;;;;;6339237;22;19994;-84
2022/10/28 08:28:25;;;;;;;57.42;35.47;;;15.10;99.90;;;;;;6339202;22;20070;-83
2022/10/28 08:30:51;;;;;;;56.55;33.85;;;15.10;99.90;;;;;;6339520;22;19997;-84
2022/10/28 08:33:17;;;;;;;55.60;32.67;;;15.20;99.90;;;;;;6339246;22;20371;-84
2022/10/28 08:35:47;;;;;;;62.97;33.90;;;15.20;99.90;;;;;;6311804;22;20026;-83
2022/10/28 08:38:13;;;;;;;61.53;34.13;;;15.20;99.90;;;;;;6339752;22;19999;-85
2022/10/28 08:41:01;;;;;;;60.60;34.72;;;15.30;99.90;;;;;;6337706;22;20046;-85
2022/10/28 08:43:44;;;;;;;58.47;34.78;;;15.40;99.90;;;;;;6339467;22;20040;-86
2022/10/28 08:46:13;;;;;;;61.13;36.45;;;15.40;99.90;;;;;;6311366;22;20052;-85
2022/10/28 08:48:40;;;;;;;55.75;34.35;;;15.50;99.90;;;;;;6338876;22;20074;-81
2022/10/28 08:51:31;;;;;;;56.50;32.72;;;15.60;99.90;;;;;;6311367;22;20408;-82
2022/10/28 08:54:10;;;;;;;42.67;24.27;;;15.70;99.90;;;;;;6339047;22;19998;-82
2022/10/28 08:56:47;;;;;;;55.72;34.13;;;15.80;99.90;;;;;;6311546;22;20005;-84
2022/10/28 08:59:18;;;;;;;58.35;33.35;;;15.90;99.90;;;;;;6313643;22;20003;-85
2022/10/28 09:02:08;;;;;;;59.45;34.55;;;16.00;99.90;;;;;;6313601;22;20404;-81
2022/10/28 09:04:40;;;;;;;49.72;31.65;;;16.10;99.90;;;;;;6319174;22;19998;-87
2022/10/28 09:07:17;;;;;;;53.30;31.40;;;16.40;99.90;;;;;;6313563;22;20081;-84
2022/10/28 09:09:44;;;;;;;58.00;33.33;;;16.60;99.90;;;;;;6313488;22;19991;-82
2022/10/28 09:12:42;;;;;;;54.92;34.58;;;16.80;99.90;;;;;;6313559;22;20288;-82
2022/10/28 09:15:26;;;;;;;50.90;33.08;;;16.90;99.90;;;;;;6286069;22;20019;-85
2022/10/28 09:18:03;;;;;;;50.15;33.17;;;17.00;99.90;;;;;;6341120;22;20006;-84
2022/10/28 09:20:47;;;;;;;51.88;34.05;;;17.10;99.90;;;;;;6313520;22;20006;-84
2022/10/28 09:23:31;;;;;;;57.03;35.80;;;17.20;99.90;;;;;;6313541;22;19999;-82
2022/10/28 09:26:18;;;;;;;53.22;36.17;;;17.30;99.90;;;;;;6313542;22;20014;-85
2022/10/28 09:29:03;;;;;;;59.17;38.30;;;17.40;99.90;;;;;;6313610;22;20002;-84
2022/10/28 09:31:37;;;;;;;59.83;38.42;;;17.50;99.90;;;;;;6313548;22;19999;-83
2022/10/28 09:34:09;;;;;;;56.95;36.47;;;17.90;99.90;;;;;;6313371;22;20045;-92
2022/10/28 09:36:46;;;;;;;68.10;42.47;;;18.10;99.90;;;;;;6340845;22;20434;-86
2022/10/28 09:39:28;;;;;;;64.50;41.80;;;18.30;99.90;;;;;;6341120;22;20037;-86
2022/10/28 09:41:59;;;;;;;68.57;43.28;;;18.60;99.90;;;;;;6340602;22;20289;-85
2022/10/28 09:44:44;;;;;;;63.90;45.40;;;18.70;99.90;;;;;;6313017;22;20078;-84
2022/10/28 09:47:39;;;;;;;55.28;40.40;;;18.80;99.90;;;;;;6340582;22;20446;-84
2022/10/28 09:50:14;;;;;;;63.78;40.80;;;19.00;99.90;;;;;;6327516;22;19999;-86
2022/10/28 09:53:01;;;;;;;66.35;35.80;;;19.00;99.90;;;;;;6313081;22;20097;-85
2022/10/28 09:55:28;;;;;;;56.95;34.22;;;19.30;99.90;;;;;;6340566;22;20434;-86
2022/10/28 09:57:54;;;;;;;53.78;36.00;;;19.50;99.90;;;;;;6340214;22;19991;-86
2022/10/28 10:00:20;;;;;;;54.17;32.03;;;19.80;99.90;;;;;;6339083;22;20430;-85
2022/10/28 10:02:46;;;;;;;56.45;32.28;;;19.90;99.90;;;;;;6340631;22;19991;-85
2022/10/28 10:05:15;;;;;;;56.42;33.78;;;20.10;99.90;;;;;;6340427;22;20052;-84
2022/10/28 10:07:44;;;;;;;56.38;31.58;;;;;;;;;;6313221;22;20308;-87
2022/10/28 10:10:21;;;;;;;60.35;33.72;;;20.50;99.90;;;;;;6312570;22;20469;-83
2022/10/28 10:12:48;;;;;;;49.42;32.03;;;20.80;99.90;;;;;;6312405;22;20070;-85
2022/10/28 10:15:31;;;;;;;81.97;35.28;;;21.00;99.90;;;;;;6312962;22;20011;-85
2022/10/28 10:18:00;;;;;;;66.97;37.85;;;21.30;99.90;;;;;;6312926;22;20064;-83
2022/10/28 10:20:27;;;;;;;61.65;35.83;;;21.40;99.90;;;;;;6340318;22;19995;-86
2022/10/28 10:22:52;;;;;;;62.28;36.20;;;21.60;98.10;;;;;;6312829;22;20001;-86
2022/10/28 10:25:18;;;;;;;60.17;34.80;;;21.70;95.20;;;;;;6339857;22;20078;-84
2022/10/28 10:27:56;;;;;;;62.03;36.10;;;21.60;97.70;;;;;;6312957;22;20009;-86
2022/10/28 10:30:44;;;;;;;56.35;30.88;;;21.70;96.20;;;;;;6312883;22;19991;-86
2022/10/28 10:33:21;;;;;;;60.83;31.42;;;;;;;;;;6312858;22;20026;-87
2022/10/28 10:36:14;;;;;;;53.75;32.47;;;;;;;;;;6313165;22;19999;-87
2022/10/28 10:39:06;;;;;;;64.45;33.08;;;;;;;;;;6306876;22;20056;-87
2022/10/28 10:41:37;;;;;;;60.08;34.78;;;;;;;;;;6306714;22;20360;-85
2022/10/28 10:44:22;;;;;;;59.85;33.22;;;;;;;;;;6312539;22;19998;-84
2022/10/28 10:47:03;;;;;;;61.42;33.08;;;;;;;;;;6312399;22;19998;-85
2022/10/28 10:49:29;;;;;;;55.50;30.10;;;;;;;;;;6313071;22;20427;-87
2022/10/28 10:51:57;;;;;;;47.88;29.65;;;;;;;;;;6340319;22;20077;-86
2022/10/28 10:54:24;;;;;;;48.85;30.10;;;;;;;;;;6312522;22;20002;-84
2022/10/28 10:56:50;;;;;;;55.47;31.55;;;;;;;;;;6312792;22;20052;-85
2022/10/28 10:59:28;;;;;;;61.53;32.70;;;;;;;;;;6312619;22;19991;-86
2022/10/28 11:01:55;;;;;;;60.78;31.15;;;;;;;;;;6312490;22;20003;-86
2022/10/28 11:04:23;;;;;;;49.72;30.20;;;;;;;;;;6312450;22;20094;-87
2022/10/28 11:06:58;;;;;;;48.38;30.95;;;;;;;;;;6340055;22;20005;-85
2022/10/28 11:09:33;;;;;;;50.10;30.20;;;;;;;;;;6312030;22;19998;-88
2022/10/28 11:11:59;;;;;;;49.30;30.70;;;;;;;;;;6339705;22;20352;-86
2022/10/28 11:14:28;;;;;;;54.63;29.48;;;;;;;;;;6312089;22;20005;-85
2022/10/28 11:16:55;;;;;;;49.13;28.45;;;;;;;;;;6312662;22;20014;-84
2022/10/28 11:19:32;;;;;;;47.50;29.52;;;;;;;;;;6312560;22;19995;-87
2022/10/28 11:22:07;;;;;;;44.85;28.00;;;;;;;;;;6339030;22;20351;-86
2022/10/28 11:24:36;;;;;;;50.65;26.55;;;;;;;;;;6312359;22;20026;-86
2022/10/28 11:27:15;;;;;;;43.65;26.10;;;;;;;;;;6312451;22;20196;-89
2022/10/28 11:29:41;;;;;;;42.08;25.42;;;;;;;;;;6312355;22;20080;-88
2022/10/28 11:32:19;;;;;;;45.50;26.08;;;;;;;;;;6311992;22;20081;-87
2022/10/28 11:34:51;;;;;;;36.05;25.10;;;;;;;;;;6314666;22;20024;-85
2022/10/28 11:37:26;;;;;;;46.30;26.52;;;;;;;;;;6316769;22;19991;-84
2022/10/28 11:39:52;;;;;;;46.60;28.48;;;;;;;;;;6312732;22;20381;-89
2022/10/28 11:42:18;;;;;;;38.97;24.13;;;;;;;;;;6339864;22;20069;-86
2022/10/28 11:44:53;;;;;;;38.42;27.35;;;;;;;;;;6312409;22;20006;-89
2022/10/28 11:47:35;;;;;;;41.15;23.27;;;;;;;;;;6339964;22;19991;-89
2022/10/28 11:50:01;;;;;;;42.40;23.73;;;;;;;;;;6311964;22;20395;-86
2022/10/28 11:52:42;;;;;;;40.42;24.80;;;;;;;;;;6312462;22;20048;-88
2022/10/28 11:55:25;;;;;;;41.40;25.05;;;;;;;;;;6312117;22;19995;-89
2022/10/28 11:58:10;;;;;;;35.47;21.27;;;;;;;;;;6312108;22;19999;-86
2022/10/28 12:00:36;;;;;;;37.70;21.30;;;;;;;;;;6312457;22;20408;-86
2022/10/28 12:03:17;;;;;;;34.35;20.65;;;;;;;;;;6312192;22;20404;-87
2022/10/28 12:05:47;;;;;;;33.58;17.60;;;;;;;;;;6312137;22;20090;-87
2022/10/28 12:08:16;;;;;;;31.65;18.20;;;;;;;;;;6311957;22;20010;-88
2022/10/28 12:10:51;;;;;;;31.65;17.98;;;;;;;;;;6339723;22;20029;-87
2022/10/28 12:13:20;;;;;;;22.23;17.58;;;;;;;;;;6312186;22;20001;-87
2022/10/28 12:15:52;;;;;;;21.95;13.10;;;;;;;;;;6311577;22;20011;-87
2022/10/28 12:18:27;;;;;;;23.92;13.43;;;;;;;;;;6311972;22;20085;-87
2022/10/28 12:21:11;;;;;;;25.38;15.57;;;22.60;76.10;;;;;;6312124;22;20052;-87
2022/10/28 12:23:39;;;;;;;17.25;12.48;;;22.60;80.80;;;;;;6311905;22;20086;-88
2022/10/28 12:26:10;;;;;;;19.73;10.30;;;22.60;78.80;;;;;;6312039;22;20005;-90
2022/10/28 12:28:54;;;;;;;24.37;12.97;;;22.50;79.10;;;;;;6311903;22;20040;-89
2022/10/28 12:31:44;;;;;;;18.83;10.43;;;22.40;79.60;;;;;;6311988;22;19999;-86
2022/10/28 12:34:14;;;;;;;22.48;12.38;;;22.40;80.50;;;;;;6314150;22;20002;-88
2022/10/28 12:36:56;;;;;;;32.88;11.25;;;22.30;78.20;;;;;;6314076;22;19999;-87
2022/10/28 12:39:24;;;;;;;;;;;22.30;79.40;;;;;;6314739;22;19999;-89
2022/10/28 12:41:58;;;;;;;14.38;10.30;;;22.30;80.50;;;;;;6341614;22;19901;-90
2022/10/28 12:44:25;;;;;;;22.20;12.05;;;22.20;79.40;;;;;;6313865;22;20108;-89
2022/10/28 12:47:13;;;;;;;24.00;12.57;;;22.20;80.50;;;;;;6313894;22;20005;-88
2022/10/28 12:49:50;;;;;;;19.95;11.55;;;22.10;81.10;;;;;;6313971;22;20081;-86
2022/10/28 12:52:21;;;;;;;17.55;11.15;;;22.00;80.70;;;;;;6314648;22;20074;-88
2022/10/28 12:54:50;;;;;;;24.17;13.75;;;22.00;82.90;;;;;;6314066;22;20037;-89
2022/10/28 12:57:19;;;;;;;19.95;11.77;;;21.90;82.60;;;;;;6314143;22;19995;-86
2022/10/28 12:59:49;;;;;;;22.25;11.40;;;21.80;82.90;;;;;;6313759;22;20009;-86
2022/10/28 13:02:29;;;;;;;17.40;11.70;;;21.80;83.50;;;;;;6314064;22;19991;-88